Time;durP1;ratioP1;P1;durP2;ratioP2;P2;SDS_P1;SDS_P2;PMS_P1;PMS_P2;Temp;Humidity;BMP_temperature;BMP_pressure;BME280_temperature;BME280_humidity;BME280_pressure;Samples;Min_cycle;Max_cycle;Signal;HPM_P1;HPM_P2
2022/03/13 00:00:59;;;;;;;12.98;9.13;;;;;;;;;;7336900;19;161948;-23
2022/03/13 00:03:51;;;;;;;16.42;9.02;;;;;;;;;;7335293;19;165156;-16
2022/03/13 00:06:35;;;;;;;13.77;7.83;;;;;;;;;;7337258;19;154303;-17
2022/03/13 00:09:09;;;;;;;12.45;7.45;;;;;;;;;;7336685;19;153449;-16
2022/03/13 00:11:41;;;;;;;15.93;8.98;;;;;;;;;;7335998;19;161933;-15
2022/03/13 00:14:13;;;;;;;16.03;8.10;;;;;;;;;;7337089;19;162626;-14
2022/03/13 00:16:44;;;;;;;11.63;7.93;;;;;;;;;;7337074;19;154141;-15
2022/03/13 00:19:16;;;;;;;23.55;8.65;;;;;;;;;;7337171;19;153655;-15
2022/03/13 00:21:53;;;;;;;12.45;8.05;;;;;;;;;;7335851;19;161779;-16
2022/03/13 00:24:25;;;;;;;10.40;7.38;;;;;;;;;;7335343;19;162639;-14
2022/03/13 00:26:56;;;;;;;10.50;7.30;;;;;;;;;;7337197;19;153967;-16
2022/03/13 00:29:27;;;;;;;11.68;7.75;;;;;;;;;;7334145;19;153701;-15
2022/03/13 00:32:00;;;;;;;12.00;7.45;;;;;;;;;;7335763;19;161960;-15
2022/03/13 00:34:33;;;;;;;12.32;7.68;;;;;;;;;;7334774;19;162654;-15
2022/03/13 00:37:07;;;;;;;12.38;7.40;;;;;;;;;;7334887;19;154187;-15
2022/03/13 00:39:40;;;;;;;9.77;5.05;;;;;;;;;;7329892;19;153590;-15
2022/03/13 00:42:12;;;;;;;10.18;6.07;;;;;;;;;;7329756;19;162089;-15
2022/03/13 00:44:43;;;;;;;8.15;5.53;;;;;;;;;;7330044;19;162712;-15
2022/03/13 00:47:14;;;;;;;12.00;5.75;;;;;;;;;;7331720;19;153968;-14
2022/03/13 00:49:46;;;;;;;11.00;5.20;;;;;;;;;;7329482;19;153697;-16
2022/03/13 00:52:20;;;;;;;8.63;4.88;;;;;;;;;;7336230;19;161966;-14
2022/03/13 00:54:52;;;;;;;7.28;5.25;;;;;;;;;;7332165;19;162537;-16
2022/03/13 00:57:23;;;;;;;8.00;4.78;;;;;;;;;;7336416;19;153941;-15
2022/03/13 00:59:56;;;;;;;8.85;4.88;;;;;;;;;;7332646;19;153897;-16
2022/03/13 10:14:40;;;;;;;2.42;1.20;;;;;;;;;;7369940;19;132796;-13
2022/03/13 10:17:28;;;;;;;2.55;0.93;;;;;;;;;;7364284;19;153691;-14
2022/03/13 10:20:16;;;;;;;2.20;1.35;;;;;;;;;;7366545;19;161772;-15
2022/03/13 10:22:50;;;;;;;2.30;1.10;;;;;;;;;;7361679;19;162635;-14
2022/03/13 10:25:32;;;;;;;3.10;1.08;;;;;;;;;;7367902;19;153846;-20
2022/03/13 10:28:15;;;;;;;3.17;1.02;;;;;;;;;;7363889;19;153542;-15
2022/03/13 10:30:50;;;;;;;2.65;0.85;;;;;;;;;;7366814;19;162083;-15
2022/03/13 10:33:25;;;;;;;0.88;0.88;;;;;;;;;;7363316;19;162503;-14
2022/03/13 10:36:09;;;;;;;1.10;0.90;;;;;;;;;;7366747;19;153873;-14
2022/03/13 10:38:41;;;;;;;2.80;0.80;;;;;;;;;;7363597;19;153547;-15
2022/03/13 10:41:13;;;;;;;1.73;0.77;;;;;;;;;;7362223;19;161909;-15
2022/03/13 10:43:58;;;;;;;1.65;1.08;;;;;;;;;;7360224;19;162761;-13
2022/03/13 10:46:34;;;;;;;4.32;1.30;;;;;;;;;;7367247;19;154069;-14
2022/03/13 10:49:09;;;;;;;2.65;1.10;;;;;;;;;;7363896;19;153650;-13
2022/03/13 10:51:45;;;;;;;1.83;0.98;;;;;;;;;;7363147;19;162409;-15
2022/03/13 10:54:31;;;;;;;2.97;1.65;;;;;;;;;;7363021;19;162305;-14
2022/03/13 10:57:08;;;;;;;1.70;1.00;;;;;;;;;;7361686;19;154121;-15
2022/03/13 10:59:40;;;;;;;4.63;1.40;;;;;;;;;;7351940;19;153998;-14
2022/03/13 11:02:21;;;;;;;6.32;1.00;;;;;;;;;;7353568;19;161807;-14
2022/03/13 11:04:55;;;;;;;3.40;1.35;;;;;;;;;;7357890;19;162376;-14
2022/03/13 11:07:27;;;;;;;2.90;1.00;;;;;;;;;;7353675;19;153919;-14
2022/03/13 11:10:00;;;;;;;1.92;1.20;;;;;;;;;;7353900;19;153631;-18
2022/03/13 11:12:32;;;;;;;6.23;0.90;;;;;;;;;;7352878;19;161883;-15
2022/03/13 11:15:04;;;;;;;2.10;1.20;;;;;;;;;;7330525;19;162427;-15
2022/03/13 11:17:40;;;;;;;2.70;1.07;;;;;;;;;;7328331;19;153996;-15
2022/03/13 11:20:13;;;;;;;7.70;1.20;;;;;;;;;;7327228;19;153535;-15
2022/03/13 11:22:44;;;;;;;1.13;1.02;;;;;;;;;;7325717;19;161995;-14
2022/03/13 11:25:16;;;;;;;2.72;0.98;;;;;;;;;;7332460;19;162506;-14
2022/03/13 11:27:48;;;;;;;2.08;0.88;;;;;;;;;;7333809;19;153982;-14
2022/03/13 11:30:35;;;;;;;1.50;1.00;;;;;;;;;;7335229;19;153882;-14
2022/03/13 11:33:09;;;;;;;3.88;1.17;;;;;;;;;;7331758;19;161743;-13
2022/03/13 11:35:40;;;;;;;1.67;1.00;;;;;;;;;;7334664;19;162335;-14
2022/03/13 11:38:21;;;;;;;1.40;1.15;;;;;;;;;;7336214;19;153898;-14
2022/03/13 11:40:53;;;;;;;2.03;0.80;;;;;;;;;;7329475;19;154180;-15
2022/03/13 11:43:25;;;;;;;2.08;0.90;;;;;;;;;;7335047;19;161732;-13
2022/03/13 11:46:00;;;;;;;1.00;0.90;;;;;;;;;;7335759;19;162731;-14
2022/03/13 11:48:42;;;;;;;1.40;1.00;;;;;;;;;;7336801;19;154088;-15
2022/03/13 11:51:32;;;;;;;2.42;1.25;;;;;;;;;;7334551;19;153490;-14
2022/03/13 11:54:05;;;;;;;2.17;1.10;;;;;;;;;;7335771;19;161925;-14
2022/03/13 11:56:49;;;;;;;2.58;1.25;;;;;;;;;;7336342;19;162411;-26
2022/03/13 11:59:24;;;;;;;1.85;1.05;;;;;;;;;;7334465;19;153972;-15
2022/03/13 12:01:55;;;;;;;1.27;1.02;;;;;;;;;;7335433;19;153484;-15
2022/03/13 12:04:30;;;;;;;1.92;0.90;;;;;;;;;;7334146;19;162067;-14
2022/03/13 12:07:06;;;;;;;1.23;1.02;;;;;;;;;;7332771;19;162548;-14
2022/03/13 12:09:45;;;;;;;2.22;1.25;;;;;;;;;;7333180;19;154157;-14
2022/03/13 12:12:18;;;;;;;0.80;0.80;;;;;;;;;;7335304;19;153712;-14
2022/03/13 12:15:02;;;;;;;1.30;0.82;;;;;;;;;;7332416;19;162026;-12
2022/03/13 12:17:46;;;;;;;4.03;1.00;;;;;;;;;;7332873;19;162352;-13
2022/03/13 12:20:28;;;;;;;3.40;1.20;;;;;;;;;;7335477;19;153961;-12
2022/03/13 12:23:00;;;;;;;2.08;1.20;;;;;;;;;;7333027;19;153611;-14
2022/03/13 12:25:32;;;;;;;3.45;1.25;;;;;;;;;;7329040;19;161796;-14
2022/03/13 12:28:05;;;;;;;1.73;1.15;;;;;;;;;;7334496;19;162432;-13
2022/03/13 12:30:37;;;;;;;1.98;1.27;;;;;;;;;;7335551;19;153951;-13
2022/03/13 12:33:10;;;;;;;2.72;1.02;;;;;;;;;;7330826;19;154009;-14
2022/03/13 12:36:02;;;;;;;1.63;1.00;;;;;;;;;;7334985;19;161827;-15
2022/03/13 12:38:35;;;;;;;0.70;0.70;;;;;;;;;;7332725;19;162577;-14
2022/03/13 12:41:10;;;;;;;2.53;0.93;;;;;;;;;;7334855;19;153927;-17
2022/03/13 12:43:54;;;;;;;3.90;1.10;;;;;;;;;;7332219;19;153873;-14
2022/03/13 12:46:27;;;;;;;5.70;0.98;;;;;;;;;;7333477;19;161936;-14
2022/03/13 12:49:00;;;;;;;2.10;1.42;;;;;;;;;;7329935;19;162566;-13
2022/03/13 12:51:43;;;;;;;1.88;1.20;;;;;;;;;;7333829;19;154115;-13
2022/03/13 12:54:16;;;;;;;1.63;1.10;;;;;;;;;;7335139;19;153985;-14
2022/03/13 12:56:49;;;;;;;0.85;0.82;;;;;;;;;;7333817;19;161990;-17
2022/03/13 12:59:24;;;;;;;;;;;;;;;;;;7332718;19;162172;-15
2022/03/13 13:02:15;;;;;;;0.80;0.80;;;;;;;;;;7333799;19;154277;-14
2022/03/13 13:04:49;;;;;;;1.92;0.90;;;;;;;;;;7331757;19;153593;-15
2022/03/13 13:07:26;;;;;;;2.08;0.98;;;;;;;;;;7331754;19;162339;-13
2022/03/13 13:09:58;;;;;;;2.40;0.90;;;;;;;;;;7334106;19;162776;-12
2022/03/13 13:12:33;;;;;;;1.58;1.00;;;;;;;;;;7331449;19;153911;-13
2022/03/13 13:15:06;;;;;;;1.08;0.90;;;;;;;;;;7334611;19;153591;-14
2022/03/13 13:17:37;;;;;;;;;;;;;;;;;;7334529;19;161848;-15
2022/03/13 13:20:20;;;;;;;2.47;0.98;;;;;;;;;;7332647;19;162535;-14
2022/03/13 13:23:09;;;;;;;0.90;0.90;;;;;;;;;;7332359;19;153931;-16
2022/03/13 13:25:40;;;;;;;1.15;1.05;;;;;;;;;;7332722;19;153542;-14
2022/03/13 13:28:13;;;;;;;1.25;0.88;;;;;;;;;;7329522;19;161801;-13
2022/03/13 13:30:44;;;;;;;1.57;0.80;;;;;;;;;;7331673;19;162840;-12
2022/03/13 13:33:19;;;;;;;1.63;0.90;;;;;;;;;;7333891;19;153940;-13
2022/03/13 13:36:00;;;;;;;1.92;1.02;;;;;;;;;;7333654;19;153665;-14
2022/03/13 13:38:34;;;;;;;2.05;1.08;;;;;;;;;;7331024;19;161765;-13
2022/03/13 13:41:09;;;;;;;0.82;0.70;;;;;;;;;;7331520;19;162432;-13
2022/03/13 13:43:45;;;;;;;1.17;1.08;;;;;;;;;;7333895;19;153955;-15
2022/03/13 13:46:18;;;;;;;0.68;0.65;;;;;;;;;;7329125;19;153807;-15
2022/03/13 13:48:51;;;;;;;1.63;1.00;;;;;;;;;;7330676;19;162078;-14
2022/03/13 13:51:25;;;;;;;2.22;0.88;;;;;;;;;;7333195;19;162448;-15
2022/03/13 13:54:04;;;;;;;1.15;1.00;;;;;;;;;;7329096;19;153919;-14
2022/03/13 13:56:41;;;;;;;1.90;0.98;;;;;;;;;;7331519;19;153791;-15
2022/03/13 13:59:22;;;;;;;;;;;;;;;;;;7332753;19;161756;-15
2022/03/13 14:01:55;;;;;;;1.55;1.02;;;;;;;;;;7329746;19;162728;-15
2022/03/13 14:04:26;;;;;;;;;;;;;;;;;;7330995;19;153978;-14
2022/03/13 14:06:59;;;;;;;0.93;0.85;;;;;;;;;;7331020;19;153392;-14
2022/03/13 14:09:35;;;;;;;1.35;0.60;;;;;;;;;;7332618;19;161821;-15
2022/03/13 14:12:08;;;;;;;1.13;0.80;;;;;;;;;;7328331;19;162511;-14
2022/03/13 14:14:39;;;;;;;;;;;;;;;;;;7331985;19;153958;-13
2022/03/13 14:17:10;;;;;;;0.80;0.80;;;;;;;;;;7332195;19;153331;-13
2022/03/13 14:19:41;;;;;;;1.70;0.80;;;;;;;;;;7332659;19;161866;-13
2022/03/13 14:22:13;;;;;;;2.72;0.90;;;;;;;;;;7329977;19;162645;-13
2022/03/13 14:24:47;;;;;;;1.10;1.00;;;;;;;;;;7329871;19;153891;-13
2022/03/13 14:27:18;;;;;;;1.45;0.70;;;;;;;;;;7330809;19;153460;-14
2022/03/13 14:29:49;;;;;;;1.23;0.80;;;;;;;;;;7329117;19;161966;-14
2022/03/13 14:32:20;;;;;;;1.38;1.10;;;;;;;;;;7332318;19;163555;-15
2022/03/13 14:34:52;;;;;;;2.58;0.90;;;;;;;;;;7329968;19;153895;-13
2022/03/13 14:37:23;;;;;;;0.60;0.60;;;;;;;;;;7330907;19;153975;-15
2022/03/13 14:40:11;;;;;;;2.33;1.10;;;;;;;;;;7329199;19;161847;-15
2022/03/13 14:42:42;;;;;;;1.17;0.90;;;;;;;;;;7327287;19;162518;-14
2022/03/13 14:45:13;;;;;;;1.45;1.00;;;;;;;;;;7327292;19;154029;-15
2022/03/13 14:47:45;;;;;;;2.70;1.05;;;;;;;;;;7332039;19;153668;-15
2022/03/13 14:50:26;;;;;;;1.33;0.82;;;;;;;;;;7332931;19;161852;-13
2022/03/13 14:52:57;;;;;;;1.27;0.70;;;;;;;;;;7337424;19;162522;-13
2022/03/13 14:55:31;;;;;;;1.67;0.80;;;;;;;;;;7335582;19;154378;-14
2022/03/13 14:58:03;;;;;;;1.10;1.00;;;;;;;;;;7338863;19;153719;-15
2022/03/13 15:00:34;;;;;;;0.70;0.70;;;;;;;;;;7337155;19;161857;-15
2022/03/13 15:03:06;;;;;;;1.90;1.15;;;;;;;;;;7336591;19;162622;-14
2022/03/13 15:05:37;;;;;;;1.88;1.20;;;;;;;;;;7337638;19;154090;-13
2022/03/13 15:08:08;;;;;;;1.70;1.20;;;;;;;;;;7334518;19;153604;-13
2022/03/13 15:10:45;;;;;;;15.75;8.60;;;;;;;;;;7333330;19;161999;-15
2022/03/13 15:13:20;;;;;;;22.63;12.98;;;;;;;;;;7335350;19;164692;-13
2022/03/13 15:15:52;;;;;;;15.50;8.65;;;;;;;;;;7334282;19;153941;-14
2022/03/13 15:18:26;;;;;;;12.15;6.40;;;;;;;;;;7333088;19;153566;-14
2022/03/13 15:21:01;;;;;;;10.55;6.53;;;;;;;;;;7337689;19;161916;-15
2022/03/13 15:23:33;;;;;;;8.05;5.63;;;;;;;;;;7330809;19;162441;-15
2022/03/13 15:26:07;;;;;;;8.40;4.88;;;;;;;;;;7334454;19;154093;-13
2022/03/13 15:28:38;;;;;;;16.10;5.43;;;;;;;;;;7338136;19;153594;-15
2022/03/13 15:31:09;;;;;;;9.30;5.80;;;;;;;;;;7336062;19;162088;-15
2022/03/13 15:33:41;;;;;;;12.27;7.10;;;;;;;;;;7333216;19;162381;-15
2022/03/13 15:36:12;;;;;;;9.00;5.30;;;;;;;;;;7333762;19;154083;-14
2022/03/13 15:38:43;;;;;;;6.30;4.97;;;;;;;;;;7336285;19;153553;-14
2022/03/13 15:41:18;;;;;;;7.17;4.57;;;;;;;;;;7333404;19;161848;-14
2022/03/13 15:43:49;;;;;;;9.07;5.32;;;;;;;;;;7334268;19;162495;-14
2022/03/13 15:46:24;;;;;;;7.60;4.55;;;;;;;;;;7335114;19;154696;-13
2022/03/13 15:48:56;;;;;;;6.78;4.25;;;;;;;;;;7334784;19;153318;-15
2022/03/13 15:51:27;;;;;;;6.53;3.95;;;;;;;;;;7336051;19;161777;-14
2022/03/13 15:53:58;;;;;;;5.47;3.78;;;;;;;;;;7334424;19;162649;-14
2022/03/13 15:56:32;;;;;;;6.03;3.90;;;;;;;;;;7334976;19;154065;-14
2022/03/13 15:59:04;;;;;;;5.95;4.22;;;;;;;;;;7337464;19;153536;-15
2022/03/13 16:01:36;;;;;;;7.65;4.57;;;;;;;;;;7335338;19;161752;-16
2022/03/13 16:04:07;;;;;;;5.43;3.85;;;;;;;;;;7335653;19;162444;-14
2022/03/13 16:06:40;;;;;;;7.80;4.32;;;;;;;;;;7333905;19;154073;-14
2022/03/13 16:09:11;;;;;;;8.52;4.20;;;;;;;;;;7335856;19;153839;-15
2022/03/13 16:11:45;;;;;;;6.05;4.10;;;;;;;;;;7330124;19;161827;-15
2022/03/13 16:14:18;;;;;;;7.00;4.40;;;;;;;;;;7333006;19;162621;-14
2022/03/13 16:16:49;;;;;;;6.82;4.20;;;;;;;;;;7331155;19;154102;-16
2022/03/13 16:19:22;;;;;;;7.90;4.10;;;;;;;;;;7333812;19;153523;-14
2022/03/13 16:21:55;;;;;;;7.00;3.75;;;;;;;;;;7334058;19;162084;-15
2022/03/13 16:24:26;;;;;;;4.43;3.70;;;;;;;;;;7333408;19;162353;-13
2022/03/13 16:27:01;;;;;;;7.28;3.70;;;;;;;;;;7333030;19;153986;-15
2022/03/13 16:29:32;;;;;;;7.90;4.22;;;;;;;;;;7335649;19;153503;-14
2022/03/13 16:32:04;;;;;;;6.15;3.67;;;;;;;;;;7329661;19;162135;-15
2022/03/13 16:34:35;;;;;;;5.88;3.40;;;;;;;;;;7333484;19;162162;-14
2022/03/13 16:37:09;;;;;;;7.32;3.63;;;;;;;;;;7332863;19;153948;-15
2022/03/13 16:39:41;;;;;;;8.02;3.90;;;;;;;;;;7335647;19;153657;-14
2022/03/13 16:42:15;;;;;;;7.05;3.92;;;;;;;;;;7332566;19;161938;-14
2022/03/13 16:44:46;;;;;;;4.72;3.17;;;;;;;;;;7333412;19;162671;-14
2022/03/13 16:47:18;;;;;;;5.20;3.33;;;;;;;;;;7333577;19;153932;-15
2022/03/13 16:49:49;;;;;;;6.28;3.47;;;;;;;;;;7335304;19;153649;-14
2022/03/13 16:52:20;;;;;;;7.13;3.88;;;;;;;;;;7332380;19;161831;-15
2022/03/13 16:54:52;;;;;;;6.30;3.35;;;;;;;;;;7333169;19;162503;-14
2022/03/13 16:57:25;;;;;;;6.85;3.67;;;;;;;;;;7334767;19;154393;-14
2022/03/13 16:59:57;;;;;;;6.22;3.33;;;;;;;;;;7335762;19;153541;-14
2022/03/13 17:02:28;;;;;;;7.05;3.75;;;;;;;;;;7332159;19;161963;-15
2022/03/13 17:05:01;;;;;;;6.18;3.72;;;;;;;;;;7333096;19;162500;-14
2022/03/13 17:07:36;;;;;;;5.55;3.42;;;;;;;;;;7333495;19;154148;-16
2022/03/13 17:10:09;;;;;;;5.85;3.13;;;;;;;;;;7331672;19;153551;-14
2022/03/13 17:12:43;;;;;;;4.95;3.28;;;;;;;;;;7328876;19;161924;-15
2022/03/13 17:15:15;;;;;;;5.20;2.83;;;;;;;;;;7333635;19;162324;-16
2022/03/13 17:17:46;;;;;;;6.45;3.20;;;;;;;;;;7333556;19;153998;-14
2022/03/13 17:20:24;;;;;;;9.15;3.55;;;;;;;;;;7333475;19;153474;-16
2022/03/13 17:22:56;;;;;;;5.82;3.35;;;;;;;;;;7331406;19;161985;-16
2022/03/13 17:25:30;;;;;;;5.88;3.25;;;;;;;;;;7332427;19;162363;-14
2022/03/13 17:28:04;;;;;;;5.63;3.03;;;;;;;;;;7331780;19;153778;-15
2022/03/13 17:30:35;;;;;;;6.47;3.05;;;;;;;;;;7331107;19;153830;-14
2022/03/13 17:33:07;;;;;;;5.95;3.33;;;;;;;;;;7332599;19;161934;-14
2022/03/13 17:35:38;;;;;;;7.00;3.30;;;;;;;;;;7332903;19;162363;-15
2022/03/13 17:38:09;;;;;;;4.55;3.03;;;;;;;;;;7331281;19;154009;-14
2022/03/13 17:40:41;;;;;;;4.65;2.72;;;;;;;;;;7332053;19;153782;-13
2022/03/13 17:43:14;;;;;;;4.07;3.28;;;;;;;;;;7332863;19;161788;-15
2022/03/13 17:45:46;;;;;;;5.38;2.55;;;;;;;;;;7331488;19;162380;-13
2022/03/13 17:48:18;;;;;;;4.53;2.53;;;;;;;;;;7330898;19;154135;-14
2022/03/13 17:50:49;;;;;;;4.00;2.83;;;;;;;;;;7332952;19;153468;-14
2022/03/13 17:53:20;;;;;;;4.18;2.78;;;;;;;;;;7330382;19;161758;-14
2022/03/13 17:55:52;;;;;;;4.45;2.70;;;;;;;;;;7333388;19;162639;-15
2022/03/13 17:58:28;;;;;;;5.60;2.83;;;;;;;;;;7331246;19;153989;-14
2022/03/13 18:01:00;;;;;;;13.30;2.90;;;;;;;;;;7330991;19;153642;-15
2022/03/13 18:03:31;;;;;;;5.57;2.60;;;;;;;;;;7332839;19;162209;-14
2022/03/13 18:06:03;;;;;;;4.35;2.80;;;;;;;;;;7332809;19;162438;-14
2022/03/13 18:08:35;;;;;;;3.92;2.50;;;;;;;;;;7328448;19;154714;-13
2022/03/13 18:11:07;;;;;;;5.43;3.08;;;;;;;;;;7330734;19;153524;-15
2022/03/13 18:13:41;;;;;;;3.92;2.67;;;;;;;;;;7330476;19;161597;-14
2022/03/13 18:16:15;;;;;;;4.93;2.78;;;;;;;;;;7326839;19;162391;-14
2022/03/13 18:18:47;;;;;;;4.15;2.60;;;;;;;;;;7325078;19;153879;-14
2022/03/13 18:21:18;;;;;;;6.25;2.63;;;;;;;;;;7331592;19;153481;-15
2022/03/13 18:23:50;;;;;;;;;;;;;;;;;;7332564;19;162203;-14
2022/03/13 18:26:21;;;;;;;4.03;2.70;;;;;;;;;;7338911;19;163927;-15
2022/03/13 18:28:56;;;;;;;3.72;2.45;;;;;;;;;;7336643;19;153643;-13
2022/03/13 18:31:27;;;;;;;5.15;2.47;;;;;;;;;;7329971;19;153498;-14
2022/03/13 18:33:58;;;;;;;3.33;2.08;;;;;;;;;;7336310;19;162212;-13
2022/03/13 18:36:30;;;;;;;4.07;2.35;;;;;;;;;;7337171;19;162337;-13
2022/03/13 18:39:01;;;;;;;3.00;2.33;;;;;;;;;;7338535;19;153982;-14
2022/03/13 18:41:33;;;;;;;3.03;2.35;;;;;;;;;;7338040;19;153619;-14
2022/03/13 18:44:07;;;;;;;4.07;2.42;;;;;;;;;;7337315;19;161768;-13
2022/03/13 18:46:40;;;;;;;4.03;2.42;;;;;;;;;;7337453;19;163187;-13
2022/03/13 18:49:14;;;;;;;3.33;2.15;;;;;;;;;;7335320;19;154040;-13
2022/03/13 18:51:45;;;;;;;5.25;2.20;;;;;;;;;;7338120;19;153529;-14
2022/03/13 18:54:17;;;;;;;4.43;2.55;;;;;;;;;;7337772;19;161769;-15
2022/03/13 18:56:48;;;;;;;6.28;2.58;;;;;;;;;;7336787;19;162655;-13
2022/03/13 18:59:22;;;;;;;2.55;2.20;;;;;;;;;;7334105;19;154418;-13
2022/03/13 19:01:54;;;;;;;3.15;1.92;;;;;;;;;;7335195;19;153871;-14
2022/03/13 19:04:26;;;;;;;3.38;2.05;;;;;;;;;;7335575;19;162829;-14
2022/03/13 19:06:57;;;;;;;3.13;2.20;;;;;;;;;;7336496;19;162699;-14
2022/03/13 19:09:32;;;;;;;4.35;1.98;;;;;;;;;;7335183;19;154053;-13
2022/03/13 19:12:03;;;;;;;2.75;1.88;;;;;;;;;;7335572;19;154352;-14
2022/03/13 19:14:52;;;;;;;5.82;2.22;;;;;;;;;;7336666;19;162026;-15
2022/03/13 19:17:23;;;;;;;3.20;2.40;;;;;;;;;;7334554;19;162471;-15
2022/03/13 19:19:56;;;;;;;3.45;2.40;;;;;;;;;;7337112;19;153964;-16
2022/03/13 19:22:30;;;;;;;3.30;1.90;;;;;;;;;;7335931;19;153563;-14
2022/03/13 19:25:02;;;;;;;2.75;2.13;;;;;;;;;;7336307;19;161824;-15
2022/03/13 19:27:33;;;;;;;3.78;2.55;;;;;;;;;;7335551;19;162508;-14
2022/03/13 19:30:11;;;;;;;2.83;1.90;;;;;;;;;;7331512;19;154078;-14
2022/03/13 19:32:43;;;;;;;3.72;2.72;;;;;;;;;;7334140;19;153533;-15
2022/03/13 19:35:14;;;;;;;3.38;2.03;;;;;;;;;;7334604;19;162662;-14
2022/03/13 19:37:46;;;;;;;5.50;2.50;;;;;;;;;;7333740;19;162488;-15
2022/03/13 19:40:17;;;;;;;3.28;1.92;;;;;;;;;;7335830;19;154176;-16
2022/03/13 19:42:49;;;;;;;3.78;2.28;;;;;;;;;;7334552;19;153567;-16
2022/03/13 19:45:23;;;;;;;2.97;1.85;;;;;;;;;;7335391;19;162789;-14
2022/03/13 19:47:57;;;;;;;3.75;2.05;;;;;;;;;;7335488;19;162626;-14
2022/03/13 19:50:30;;;;;;;2.88;2.00;;;;;;;;;;7331355;19;154061;-14
2022/03/13 19:53:03;;;;;;;3.72;2.10;;;;;;;;;;7336939;19;153553;-14
2022/03/13 19:55:34;;;;;;;2.70;1.73;;;;;;;;;;7334311;19;161651;-13
2022/03/13 19:58:05;;;;;;;4.35;1.95;;;;;;;;;;7334673;19;162518;-15
2022/03/13 20:00:40;;;;;;;2.65;2.03;;;;;;;;;;7336028;19;154171;-14
2022/03/13 20:03:11;;;;;;;2.70;1.80;;;;;;;;;;7334671;19;153660;-13
2022/03/13 20:05:43;;;;;;;6.28;2.20;;;;;;;;;;7335992;19;162086;-14
2022/03/13 20:08:15;;;;;;;3.50;2.00;;;;;;;;;;7333702;19;162995;-23
2022/03/13 20:10:46;;;;;;;2.65;1.90;;;;;;;;;;7330408;19;154052;-16
2022/03/13 20:13:17;;;;;;;4.13;1.80;;;;;;;;;;7334793;19;153630;-15
2022/03/13 20:15:52;;;;;;;7.82;2.55;;;;;;;;;;7336366;19;161876;-14
2022/03/13 20:18:23;;;;;;;4.60;2.20;;;;;;;;;;7333648;19;162340;-17
2022/03/13 20:20:54;;;;;;;2.75;1.90;;;;;;;;;;7336333;19;154039;-14
2022/03/13 20:23:26;;;;;;;4.15;2.33;;;;;;;;;;7336084;19;153951;-15
2022/03/13 20:25:57;;;;;;;10.15;4.47;;;;;;;;;;7332973;19;162094;-14
2022/03/13 20:28:28;;;;;;;8.95;3.85;;;;;;;;;;7333692;19;162427;-15
2022/03/13 20:31:03;;;;;;;10.75;4.63;;;;;;;;;;7332424;19;154078;-13
2022/03/13 20:33:35;;;;;;;8.02;3.90;;;;;;;;;;7335680;19;153689;-19
2022/03/13 20:36:07;;;;;;;13.15;3.88;;;;;;;;;;7333639;19;164611;-14
2022/03/13 20:38:40;;;;;;;8.47;3.87;;;;;;;;;;7333162;19;162520;-14
2022/03/13 20:41:12;;;;;;;;;;;;;;;;;;7335485;19;154176;-14
2022/03/13 20:43:46;;;;;;;5.93;3.27;;;;;;;;;;7335833;19;153421;-15
2022/03/13 20:46:23;;;;;;;15.32;4.40;;;;;;;;;;7330969;19;161739;-14
2022/03/13 20:49:02;;;;;;;6.28;3.40;;;;;;;;;;7332428;19;162450;-13
2022/03/13 20:51:47;;;;;;;8.25;3.50;;;;;;;;;;7334555;19;154153;-14
2022/03/13 20:54:32;;;;;;;11.00;3.78;;;;;;;;;;7334155;19;153692;-15
2022/03/13 20:57:11;;;;;;;9.23;3.60;;;;;;;;;;7331110;19;161922;-15
2022/03/13 20:59:46;;;;;;;5.20;3.50;;;;;;;;;;7323214;19;162809;-15
2022/03/13 21:02:19;;;;;;;5.22;3.35;;;;;;;;;;7322074;19;154071;-13
2022/03/13 21:04:56;;;;;;;6.50;3.38;;;;;;;;;;7322564;19;153526;-15
2022/03/13 21:07:38;;;;;;;9.48;3.30;;;;;;;;;;7321839;19;162141;-15
2022/03/13 21:10:22;;;;;;;7.68;3.47;;;;;;;;;;7321120;19;162413;-15
2022/03/13 21:13:06;;;;;;;6.88;3.55;;;;;;;;;;7319366;19;154006;-15
2022/03/13 21:15:46;;;;;;;4.88;2.78;;;;;;;;;;7330924;19;153552;-15
2022/03/13 21:18:23;;;;;;;11.60;4.63;;;;;;;;;;7333771;19;162038;-15
2022/03/13 21:21:01;;;;;;;8.10;3.80;;;;;;;;;;7333476;19;162233;-14
2022/03/13 21:23:38;;;;;;;7.40;4.43;;;;;;;;;;7334228;19;154081;-14
2022/03/13 21:26:16;;;;;;;9.60;4.25;;;;;;;;;;7333935;19;153469;-15
2022/03/13 21:28:53;;;;;;;10.25;3.58;;;;;;;;;;7332813;19;162137;-15
2022/03/13 21:31:30;;;;;;;6.57;3.42;;;;;;;;;;7331144;19;162425;-14
2022/03/13 21:34:16;;;;;;;10.43;3.50;;;;;;;;;;7332610;19;154431;-15
2022/03/13 21:36:57;;;;;;;9.10;3.80;;;;;;;;;;7332561;19;153275;-15
2022/03/13 21:39:35;;;;;;;9.13;3.33;;;;;;;;;;7333214;19;161877;-15
2022/03/13 21:42:16;;;;;;;9.73;4.53;;;;;;;;;;7333074;19;162483;-13
2022/03/13 21:44:55;;;;;;;5.88;3.63;;;;;;;;;;7333619;19;154220;-14
2022/03/13 21:47:27;;;;;;;6.35;3.50;;;;;;;;;;7332623;19;153554;-14
2022/03/13 21:50:05;;;;;;;8.50;3.88;;;;;;;;;;7331477;19;161954;-14
2022/03/13 21:52:38;;;;;;;8.48;4.18;;;;;;;;;;7332266;19;163066;-13
2022/03/13 21:55:12;;;;;;;8.38;3.92;;;;;;;;;;7332813;19;154131;-15
2022/03/13 21:57:44;;;;;;;8.65;3.65;;;;;;;;;;7331402;19;153502;-13
2022/03/13 22:00:17;;;;;;;6.35;3.60;;;;;;;;;;7332523;19;161952;-14
2022/03/13 22:02:48;;;;;;;5.70;3.03;;;;;;;;;;7332328;19;162394;-14
2022/03/13 22:05:25;;;;;;;8.40;3.40;;;;;;;;;;7331229;19;154232;-16
2022/03/13 22:07:57;;;;;;;8.57;3.80;;;;;;;;;;7331302;19;153890;-15
2022/03/13 22:10:29;;;;;;;5.80;3.60;;;;;;;;;;7331285;19;161815;-16
2022/03/13 22:13:00;;;;;;;4.60;3.40;;;;;;;;;;7329064;19;162641;-13
2022/03/13 22:15:32;;;;;;;5.95;3.22;;;;;;;;;;7332762;19;154247;-13
2022/03/13 22:18:03;;;;;;;9.07;3.22;;;;;;;;;;7330645;19;153712;-14
2022/03/13 22:20:37;;;;;;;4.60;3.03;;;;;;;;;;7331982;19;162015;-14
2022/03/13 22:23:11;;;;;;;4.55;2.83;;;;;;;;;;7331583;19;162649;-14
2022/03/13 22:25:45;;;;;;;5.50;3.38;;;;;;;;;;7332753;19;154003;-16
2022/03/13 22:28:16;;;;;;;5.32;2.63;;;;;;;;;;7331570;19;153698;-13
2022/03/13 22:30:47;;;;;;;8.00;3.08;;;;;;;;;;7329645;19;161841;-15
2022/03/13 22:33:21;;;;;;;4.75;3.13;;;;;;;;;;7331628;19;162629;-14
2022/03/13 22:35:55;;;;;;;6.25;3.22;;;;;;;;;;7332521;19;154049;-14
2022/03/13 22:38:26;;;;;;;5.82;2.83;;;;;;;;;;7328668;19;153616;-14
2022/03/13 22:40:58;;;;;;;4.93;3.08;;;;;;;;;;7330664;19;162032;-14
2022/03/13 22:43:29;;;;;;;4.35;2.80;;;;;;;;;;7331525;19;162468;-14
2022/03/13 22:46:00;;;;;;;6.32;2.75;;;;;;;;;;7328834;19;153751;-15
2022/03/13 22:48:31;;;;;;;9.10;2.70;;;;;;;;;;7329963;19;153494;-14
2022/03/13 22:51:06;;;;;;;7.30;3.03;;;;;;;;;;7331298;19;161730;-14
2022/03/13 22:53:40;;;;;;;5.03;2.75;;;;;;;;;;7331101;19;162377;-15
2022/03/13 22:56:13;;;;;;;5.10;3.00;;;;;;;;;;7329036;19;154239;-14
2022/03/13 22:58:45;;;;;;;8.85;3.22;;;;;;;;;;7329955;19;153481;-15
2022/03/13 23:01:22;;;;;;;;;;;;;;;;;;7331247;19;161837;-15
2022/03/13 23:03:53;;;;;;;6.00;2.88;;;;;;;;;;7330234;19;162194;-13
2022/03/13 23:06:27;;;;;;;4.53;2.78;;;;;;;;;;7328288;19;154247;-14
2022/03/13 23:08:59;;;;;;;5.82;3.00;;;;;;;;;;7331039;19;153612;-14
2022/03/13 23:11:34;;;;;;;5.68;3.03;;;;;;;;;;7335504;19;161722;-14
2022/03/13 23:14:08;;;;;;;4.80;2.50;;;;;;;;;;7333059;19;162652;-17
2022/03/13 23:16:45;;;;;;;6.13;2.70;;;;;;;;;;7335387;19;153953;-14
2022/03/13 23:19:17;;;;;;;8.30;2.90;;;;;;;;;;7337447;19;153526;-16
2022/03/13 23:21:51;;;;;;;7.10;3.13;;;;;;;;;;7338206;19;162033;-16
2022/03/13 23:24:23;;;;;;;5.72;2.60;;;;;;;;;;7334845;19;162865;-14
2022/03/13 23:26:55;;;;;;;5.00;2.63;;;;;;;;;;7336350;19;153985;-14
2022/03/13 23:29:26;;;;;;;5.40;2.35;;;;;;;;;;7338280;19;153771;-15
2022/03/13 23:31:57;;;;;;;6.95;2.90;;;;;;;;;;7333147;19;161672;-15
2022/03/13 23:34:30;;;;;;;6.45;2.88;;;;;;;;;;7335880;19;162494;-16
2022/03/13 23:37:04;;;;;;;4.53;3.05;;;;;;;;;;7336523;19;154110;-15
2022/03/13 23:39:35;;;;;;;5.55;3.15;;;;;;;;;;7337434;19;153563;-14
2022/03/13 23:42:07;;;;;;;5.63;2.72;;;;;;;;;;7332772;19;162021;-14
2022/03/13 23:44:39;;;;;;;3.93;2.50;;;;;;;;;;7337541;19;162370;-14
2022/03/13 23:47:10;;;;;;;4.25;2.47;;;;;;;;;;7337099;19;154052;-15
2022/03/13 23:49:42;;;;;;;4.88;2.78;;;;;;;;;;7337262;19;153625;-15
2022/03/13 23:52:16;;;;;;;5.38;2.60;;;;;;;;;;7332385;19;161798;-14
2022/03/13 23:54:48;;;;;;;6.15;2.58;;;;;;;;;;7336480;19;162560;-16
2022/03/13 23:57:19;;;;;;;6.32;2.60;;;;;;;;;;7335392;19;153991;-15
2022/03/13 23:59:50;;;;;;;6.78;2.97;;;;;;;;;;7337249;19;153721;-16
